Flight Track Log - Related Links

Times and Time Zones

All times are in EDT time to prevent confusion due to time zone crossing. See the N6610D flight status page for this flight to view local times or setup timezone preferences in your user account.

Time Position Orientation Groundspeed Altitude Reporting Facility
EDT Latitude Longitude Course Direction KTS MPH feet Rate Location/Type
Sun 10:32:29 AM 38.5000 -121.5000 142° Southeast 62 71 600  Level Northern Cal TRACON
Sun 10:33:35 AM 38.4833 -121.4833 142° Southeast 74 85 1,500 762 Climbing Northern Cal TRACON
Sun 10:34:35 AM 38.4667 -121.4667 142° Southeast 78 90 2,200 611 Climbing Northern Cal TRACON
Sun 10:35:23 AM 38.4500 -121.4667 180° South 80 92 2,600 611 Climbing Northern Cal TRACON
Sun 10:36:23 AM 38.4333 -121.4500 142° Southeast 81 93 3,300 600 Climbing Northern Cal TRACON
Sun 10:37:23 AM 38.4167 -121.4333 142° Southeast 89 102 3,800 474 Climbing Northern Cal TRACON
Sun 10:38:17 AM 38.4000 -121.4333 180° South 88 101 4,200 474 Climbing Northern Cal TRACON
Sun 10:39:17 AM 38.3833 -121.4500 218° Southwest 82 94 4,700 421 Climbing Northern Cal TRACON
Sun 10:40:11 AM 38.3667 -121.4667 218° Southwest 78 90 5,000 421 Climbing Northern Cal TRACON
Sun 10:41:11 AM 38.3500 -121.4833 218° Southwest 79 91 5,500 421 Climbing Northern Cal TRACON
Sun 10:42:05 AM 38.3333 -121.4833 180° South 76 87 5,800 211 Climbing Northern Cal TRACON
Sun 10:43:05 AM 38.3000 -121.5000 201° Southwest 78 90 5,900 150 Climbing Northern Cal TRACON
Sun 10:44:05 AM 38.2833 -121.5000 180° South 83 96 6,100 105 Climbing Northern Cal TRACON
Sun 10:44:59 AM 38.2667 -121.5167 218° Southwest 85 98 6,100 -53 Level Northern Cal TRACON
Sun 10:45:59 AM 38.2333 -121.5333 201° Southwest 88 101 6,000 -50 Descending Northern Cal TRACON
Sun 10:46:59 AM 38.2167 -121.5333 180° South 84 97 6,000 50 Level Northern Cal TRACON
Sun 10:47:59 AM 38.2000 -121.5333 180° South 83 96 6,100  Climbing Northern Cal TRACON
Sun 10:48:59 AM 38.1667 -121.5333 180° South 82 94 6,000 -50 Descending Northern Cal TRACON
Sun 10:49:59 AM 38.1500 -121.5500 218° Southwest 84 97 6,000  Level Northern Cal TRACON
Sun 10:50:59 AM 38.1333 -121.5500 180° South 82 94 6,000  Level Northern Cal TRACON
Sun 10:51:20 AM 38.1211 -121.5467 168° South 83 96 6,000 73 Level Oakland Center
Sun 10:52:21 AM 38.0989 -121.5497 186° South 81 93 6,100  Climbing Oakland Center
Sun 10:53:22 AM 38.0769 -121.5525 186° South 80 92 6,000 -49 Descending Oakland Center
Sun 10:54:23 AM 38.0553 -121.5556 186° South 79 91 6,000 50 Level Oakland Center
Sun 10:55:23 AM 38.0358 -121.5589 188° South 73 84 6,100  Climbing Oakland Center
Sun 10:56:24 AM 38.0133 -121.5608 184° South 77 89 6,000 -49 Descending Oakland Center
Sun 10:57:25 AM 37.9922 -121.5647 188° South 78 90 6,000  Level Oakland Center
Sun 10:58:26 AM 37.9703 -121.5686 188° South 80 92 6,000  Level Oakland Center
Sun 10:59:26 AM 37.9467 -121.5714 185° South 83 96 6,000 50 Level Oakland Center
Sun 11:00:27 AM 37.9244 -121.5739 185° South 81 93 6,100  Climbing Oakland Center
Sun 11:01:28 AM 37.8972 -121.5764 184° South 82 94 6,000 -49 Descending Oakland Center
Sun 11:02:29 AM 37.8761 -121.5794 187° South 78 90 6,000  Level Oakland Center
Sun 11:02:59 AM 37.8667 -121.5833 198° South 81 93 6,000  Level Northern Cal TRACON
Sun 11:03:59 AM 37.8500 -121.5833 180° South 79 91 6,000  Level Northern Cal TRACON
Sun 11:04:59 AM 37.8167 -121.5833 180° South 75 86 6,000  Level Northern Cal TRACON
Sun 11:05:59 AM 37.8000 -121.5833 180° South 87 100 6,000  Level Northern Cal TRACON
Sun 11:06:59 AM 37.7833 -121.6000 218° Southwest 84 97 6,000  Level Northern Cal TRACON
Sun 11:07:59 AM 37.7500 -121.6000 180° South 82 94 6,000  Level Northern Cal TRACON
Sun 11:08:59 AM 37.7333 -121.6000 180° South 86 99 6,000  Level Northern Cal TRACON
Sun 11:09:59 AM 37.7000 -121.6000 180° South 86 99 6,000  Level Northern Cal TRACON
Sun 11:10:59 AM 37.6833 -121.6000 180° South 92 106 6,000  Level Northern Cal TRACON
Sun 11:11:59 AM 37.6500 -121.6167 202° Southwest 89 102 6,000 50 Level Northern Cal TRACON
Sun 11:12:59 AM 37.6333 -121.6167 180° South 85 98 6,100  Climbing Northern Cal TRACON
Sun 11:13:59 AM 37.6167 -121.6167 180° South 88 101 6,000 -50 Descending Northern Cal TRACON
Sun 11:14:59 AM 37.5833 -121.6167 180° South 91 105 6,000  Level Northern Cal TRACON
Sun 11:15:59 AM 37.5500 -121.6333 202° Southwest 96 110 6,000 50 Level Northern Cal TRACON
Sun 11:16:59 AM 37.5333 -121.6500 218° Southwest 93 107 6,100  Climbing Northern Cal TRACON
Sun 11:17:59 AM 37.5167 -121.6667 218° Southwest 84 97 6,000 -50 Descending Northern Cal TRACON
Sun 11:18:59 AM 37.5000 -121.6833 218° Southwest 85 98 6,000  Level Northern Cal TRACON
Sun 11:19:59 AM 37.4833 -121.7167 238° Southwest 81 93 6,000  Level Northern Cal TRACON
Sun 11:20:59 AM 37.4667 -121.7333 218° Southwest 87 100 6,000  Level Northern Cal TRACON
Sun 11:21:59 AM 37.4667 -121.7500 270° West 83 96 6,000 -100 Level Northern Cal TRACON
Sun 11:22:59 AM 37.4500 -121.7833 238° Southwest 107 123 5,800 -400 Descending Northern Cal TRACON
Sun 11:23:59 AM 37.4333 -121.8167 238° Southwest 102 117 5,200 -600 Descending Northern Cal TRACON
Sun 11:24:59 AM 37.4167 -121.8333 218° Southwest 92 106 4,600 -550 Descending Northern Cal TRACON
Sun 11:25:59 AM 37.4000 -121.8667 238° Southwest 109 125 4,100 -550 Descending Northern Cal TRACON
Sun 11:26:59 AM 37.3833 -121.9000 238° Southwest 119 137 3,500 -541 Descending Northern Cal TRACON
Sun 11:27:50 AM 37.3697 -121.9294 240° Southwest 119 137 3,100 -268 Descending Oakland Center
Sun 11:28:51 AM 37.3831 -121.9689 293° West 124 143 3,000 -148 Descending Oakland Center
Sun 11:29:52 AM 37.4042 -122.0036 307° West 125 144 2,800 -492 Descending Oakland Center
Sun 11:30:53 AM 37.4214 -122.0444 298° West 128 147 2,000 -836 Descending Oakland Center
Sun 11:31:54 AM 37.4508 -122.0878 311° West 133 153 1,100 -667 Descending Oakland Center
Sun 11:32:59 AM 37.4833 -122.1167 325° Northwest 105 121 600 -462 Descending Northern Cal TRACON
Sun 11:36:00 AM 37.4606 -122.1053 158° South  Level FlightAware Approximate

Login

Don't have an account? Register now (free) for customized features, flight alerts, and more!